Time;durP1;ratioP1;P1;durP2;ratioP2;P2;SDS_P1;SDS_P2;PMS_P1;PMS_P2;Temp;Humidity;BMP_temperature;BMP_pressure;BME280_temperature;BME280_humidity;BME280_pressure;Samples;Min_cycle;Max_cycle;Signal;HPM_P1;HPM_P2
2023/11/20 00:02:13;;;;;;;1.60;1.60;;;;;;;;;;5038943;28;20057;-65
2023/11/20 00:04:41;;;;;;;1.90;1.80;;;;;;;;;;5045479;28;20406;-66
2023/11/20 00:07:10;;;;;;;1.50;1.50;;;;;;;;;;5044342;28;20072;-66
2023/11/20 00:09:38;;;;;;;1.90;1.80;;;;;;;;;;5045593;28;20651;-65
2023/11/20 00:12:08;;;;;;;1.50;1.50;;;;;;;;;;5045626;28;20406;-66
2023/11/20 00:14:37;;;;;;;1.98;1.88;;;;;;;;;;5046790;28;20146;-65
2023/11/20 00:17:05;;;;;;;1.75;1.67;;;;;;;;;;5044586;28;20045;-69
2023/11/20 00:19:35;;;;;;;1.70;1.60;;;;;;;;;;5046874;28;20085;-68
2023/11/20 00:22:04;;;;;;;1.60;1.60;;;;;;;;;;5043133;28;20095;-67
2023/11/20 00:24:32;;;;;;;1.90;1.80;;;;;;;;;;5044032;28;20053;-67
2023/11/20 00:27:01;;;;;;;1.70;1.65;;;;;;;;;;5045175;28;20053;-66
2023/11/20 00:29:30;;;;;;;1.70;1.70;;;;;;;;;;5047092;28;20544;-66
2023/11/20 00:31:58;;;;;;;1.60;1.60;;;;;;;;;;5040670;28;20072;-66
2023/11/20 00:34:27;;;;;;;1.70;1.70;;;;;;;;;;5045637;28;20060;-66
2023/11/20 00:36:57;;;;;;;1.67;1.67;;;;;;;;;;5040807;28;20111;-66
2023/11/20 00:39:25;;;;;;;2.00;1.90;;;;;;;;;;5046906;28;20095;-67
2023/11/20 00:41:54;;;;;;;1.90;1.80;;;;;;;;;;5045763;28;20053;-66
2023/11/20 00:44:22;;;;;;;1.88;1.77;;;;;;;;;;5036546;28;20053;-66
2023/11/20 00:46:50;;;;;;;2.10;1.90;;;;;;;;;;5039632;28;20041;-65
2023/11/20 00:49:19;;;;;;;2.03;1.92;;;;;;;;;;5047758;28;20056;-69
2023/11/20 00:51:47;;;;;;;2.00;1.90;;;;;;;;;;5042104;28;20045;-66
2023/11/20 00:54:17;;;;;;;1.70;1.70;;;;;;;;;;5042205;28;20229;-67
2023/11/20 00:56:45;;;;;;;1.63;1.63;;;;;;;;;;5043931;28;20076;-72
2023/11/20 00:59:13;;;;;;;1.98;1.88;;;;;;;;;;5047154;28;20341;-67
2023/11/20 01:01:42;;;;;;;1.88;1.77;;;;;;;;;;5035579;28;20057;-66
2023/11/20 01:04:10;;;;;;;1.63;1.63;;;;;;;;;;5046773;28;20069;-69
2023/11/20 01:06:40;;;;;;;4.53;1.80;;;;;;;;;;5036775;28;20053;-66
2023/11/20 01:09:08;;;;;;;1.67;1.67;;;;;;;;;;5046217;28;20069;-69
2023/11/20 01:11:38;;;;;;;1.65;1.63;;;;;;;;;;5046562;28;20052;-67
2023/11/20 01:14:06;;;;;;;1.80;1.70;;;;;;;;;;5042412;28;20122;-67
2023/11/20 01:16:35;;;;;;;1.65;1.60;;;;;;;;;;5045145;28;20134;-66
2023/11/20 01:19:03;;;;;;;1.90;1.80;;;;;;;;;;5040706;28;20080;-66
2023/11/20 01:21:32;;;;;;;1.60;1.60;;;;;;;;;;5046453;28;20970;-68
2023/11/20 01:24:01;;;;;;;1.80;1.80;;;;;;;;;;5046528;28;20465;-68
2023/11/20 01:26:29;;;;;;;1.90;1.80;;;;;;;;;;5045744;28;20057;-69
2023/11/20 01:28:59;;;;;;;2.10;2.00;;;;;;;;;;5046304;28;20048;-66
2023/11/20 01:31:27;;;;;;;1.60;1.60;;;;;;;;;;5046913;28;20076;-66
2023/11/20 01:33:55;;;;;;;1.70;1.60;;;;;;;;;;5037140;28;20544;-68
2023/11/20 01:36:24;;;;;;;1.70;1.60;;;;;;;;;;5041841;28;20544;-68
2023/11/20 01:38:52;;;;;;;1.90;1.80;;;;;;;;;;5038800;28;20124;-66
2023/11/20 01:41:20;;;;;;;1.90;1.80;;;;;;;;;;5048669;28;20045;-68
2023/11/20 01:43:50;;;;;;;1.88;1.77;;;;;;;;;;5041137;28;20049;-66
2023/11/20 01:46:20;;;;;;;1.67;1.67;;;;;;;;;;5047677;28;20045;-69
2023/11/20 01:48:49;;;;;;;1.65;1.63;;;;;;;;;;5049784;28;20045;-71
2023/11/20 01:51:17;;;;;;;2.03;1.90;;;;;;;;;;5044876;28;20074;-66
2023/11/20 01:53:45;;;;;;;1.90;1.80;;;;;;;;;;5048102;28;20085;-66
2023/11/20 01:56:14;;;;;;;2.03;1.92;;;;;;;;;;5050625;28;20052;-66
2023/11/20 01:58:43;;;;;;;1.80;1.70;;;;;;;;;;5045131;28;20048;-66
2023/11/20 02:01:11;;;;;;;1.77;1.77;;;;;;;;;;5050740;28;20315;-66
2023/11/20 02:03:41;;;;;;;1.90;1.80;;;;;;;;;;5047756;28;20508;-67
2023/11/20 02:06:09;;;;;;;1.67;1.67;;;;;;;;;;5050675;28;20059;-69
2023/11/20 02:08:38;;;;;;;1.92;1.83;;;;;;;;;;5046617;28;20057;-66
2023/11/20 02:11:06;;;;;;;1.92;1.83;;;;;;;;;;5046909;28;20080;-71
2023/11/20 02:13:36;;;;;;;1.98;1.90;;;;;;;;;;5045902;28;20049;-67
2023/11/20 02:16:04;;;;;;;1.77;1.67;;;;;;;;;;5035168;28;20080;-70
2023/11/20 02:18:34;;;;;;;1.95;1.85;;;;;;;;;;5047804;28;20057;-66
2023/11/20 02:21:05;;;;;;;1.85;1.70;;;;;;;;;;5050014;28;20409;-68
2023/11/20 02:23:33;;;;;;;1.92;1.83;;;;;;;;;;5049448;28;20060;-67
2023/11/20 02:26:16;;;;;;;1.60;1.60;;;;;;;;;;5046447;28;20041;-67
2023/11/20 02:29:04;;;;;;;2.35;1.83;;;;;;;;;;5039042;28;20501;-67
2023/11/20 02:31:34;;;;;;;2.00;1.90;;;;;;;;;;5048205;28;20045;-67
2023/11/20 02:34:03;;;;;;;1.60;1.60;;;;;;;;;;5041656;28;20037;-67
2023/11/20 02:36:32;;;;;;;1.73;1.73;;;;;;;;;;5048840;28;20414;-66
2023/11/20 02:39:01;;;;;;;1.67;1.67;;;;;;;;;;5047970;28;20049;-69
2023/11/20 02:41:29;;;;;;;1.70;1.60;;;;;;;;;;5043476;28;20088;-65
2023/11/20 02:43:58;;;;;;;1.80;1.80;;;;;;;;;;5035762;28;20037;-66
2023/11/20 02:46:26;;;;;;;1.85;1.70;;;;;;;;;;5045974;28;20049;-69
2023/11/20 02:48:56;;;;;;;1.90;1.80;;;;;;;;;;5046273;28;20138;-67
2023/11/20 02:51:27;;;;;;;1.75;1.65;;;;;;;;;;5048810;28;20049;-67
2023/11/20 02:53:56;;;;;;;1.73;1.70;;;;;;;;;;5045360;28;20422;-68
2023/11/20 02:56:25;;;;;;;1.90;1.80;;;;;;;;;;5040827;28;20441;-66
2023/11/20 02:58:53;;;;;;;1.60;1.60;;;;;;;;;;5045932;28;20073;-69
2023/11/20 03:01:22;;;;;;;1.90;1.80;;;;;;;;;;5045765;28;20536;-67
2023/11/20 03:03:53;;;;;;;1.80;1.70;;;;;;;;;;5046780;28;20069;-66
2023/11/20 03:06:23;;;;;;;1.60;1.60;;;;;;;;;;5048596;28;20079;-67
2023/11/20 03:08:52;;;;;;;1.73;1.70;;;;;;;;;;5048519;28;20037;-67
2023/11/20 03:11:20;;;;;;;1.73;1.63;;;;;;;;;;5045213;28;20052;-65
2023/11/20 03:13:48;;;;;;;1.85;1.75;;;;;;;;;;5048686;28;20094;-65
2023/11/20 03:16:17;;;;;;;1.50;1.50;;;;;;;;;;5047874;28;20040;-67
2023/11/20 03:18:46;;;;;;;1.90;1.80;;;;;;;;;;5045275;28;20091;-66
2023/11/20 03:21:14;;;;;;;2.00;1.80;;;;;;;;;;5048909;28;20064;-66
2023/11/20 03:23:44;;;;;;;1.52;1.52;;;;;;;;;;5046906;28;20128;-67
2023/11/20 03:26:13;;;;;;;2.03;1.92;;;;;;;;;;5048629;28;20044;-67
2023/11/20 03:28:41;;;;;;;1.80;1.70;;;;;;;;;;5048731;28;20672;-70
2023/11/20 03:31:09;;;;;;;1.75;1.65;;;;;;;;;;5048837;28;20106;-66
2023/11/20 03:33:38;;;;;;;1.75;1.65;;;;;;;;;;5043069;28;20052;-68
2023/11/20 03:36:07;;;;;;;1.75;1.75;;;;;;;;;;5048615;28;20114;-67
2023/11/20 03:38:35;;;;;;;1.88;1.80;;;;;;;;;;5037876;28;20126;-67
2023/11/20 03:41:05;;;;;;;1.60;1.60;;;;;;;;;;5045539;28;20041;-68
2023/11/20 03:43:34;;;;;;;1.77;1.77;;;;;;;;;;5048787;28;20556;-65
2023/11/20 03:46:02;;;;;;;1.60;1.50;;;;;;;;;;5048093;28;20494;-68
2023/11/20 03:48:31;;;;;;;1.73;1.70;;;;;;;;;;5040615;28;20103;-67
2023/11/20 03:51:01;;;;;;;2.00;1.90;;;;;;;;;;5044687;28;20522;-66
2023/11/20 03:53:29;;;;;;;1.90;1.80;;;;;;;;;;5046782;28;20334;-66
2023/11/20 03:55:57;;;;;;;1.60;1.60;;;;;;;;;;5049728;28;20053;-65
2023/11/20 03:58:28;;;;;;;1.70;1.70;;;;;;;;;;5048563;28;20076;-67
2023/11/20 04:00:56;;;;;;;1.80;1.77;;;;;;;;;;5043929;28;20481;-65
2023/11/20 04:03:24;;;;;;;1.70;1.60;;;;;;;;;;5033678;28;20050;-65
2023/11/20 04:05:53;;;;;;;2.20;2.00;;;;;;;;;;5041583;28;20102;-66
2023/11/20 04:08:21;;;;;;;1.85;1.75;;;;;;;;;;5046453;28;20049;-66
2023/11/20 04:10:50;;;;;;;1.95;1.85;;;;;;;;;;5048278;28;20127;-65
2023/11/20 04:13:18;;;;;;;1.90;1.80;;;;;;;;;;5047306;28;20487;-66
2023/11/20 04:15:48;;;;;;;2.47;1.90;;;;;;;;;;5047121;28;20045;-65
2023/11/20 04:18:16;;;;;;;2.30;1.63;;;;;;;;;;5041537;28;20128;-64
2023/11/20 04:20:45;;;;;;;1.70;1.70;;;;;;;;;;5042973;28;20056;-65
2023/11/20 04:23:15;;;;;;;1.92;1.83;;;;;;;;;;5047119;28;20053;-68
2023/11/20 04:25:43;;;;;;;1.60;1.60;;;;;;;;;;5034499;28;20417;-69
2023/11/20 04:28:12;;;;;;;2.17;1.90;;;;;;;;;;5039722;28;20126;-69
2023/11/20 04:30:40;;;;;;;1.75;1.70;;;;;;;;;;5043580;28;20494;-65
2023/11/20 04:33:10;;;;;;;1.90;1.80;;;;;;;;;;5047575;28;20096;-68
2023/11/20 04:35:39;;;;;;;1.88;1.77;;;;;;;;;;5047973;28;20049;-68
2023/11/20 04:38:07;;;;;;;1.85;1.80;;;;;;;;;;5036078;28;20132;-68
2023/11/20 04:40:35;;;;;;;2.25;1.80;;;;;;;;;;5046294;28;20045;-66
2023/11/20 04:43:04;;;;;;;1.65;1.60;;;;;;;;;;5042703;28;20064;-65
2023/11/20 04:45:33;;;;;;;1.55;1.55;;;;;;;;;;5042655;28;20052;-67
2023/11/20 04:48:03;;;;;;;1.85;1.70;;;;;;;;;;5046518;28;20056;-66
2023/11/20 04:50:33;;;;;;;1.90;1.80;;;;;;;;;;5043002;28;20087;-66
2023/11/20 04:53:01;;;;;;;2.00;1.80;;;;;;;;;;5046735;28;20045;-70
2023/11/20 04:55:30;;;;;;;1.95;1.65;;;;;;;;;;5046474;28;20064;-68
2023/11/20 04:57:58;;;;;;;1.90;1.80;;;;;;;;;;5040217;28;20057;-68
2023/11/20 05:00:27;;;;;;;1.80;1.70;;;;;;;;;;5042528;28;20080;-65
2023/11/20 05:02:55;;;;;;;1.60;1.60;;;;;;;;;;5035159;28;20104;-64
2023/11/20 05:05:24;;;;;;;2.30;2.10;;;;;;;;;;5044622;28;20172;-67
2023/11/20 05:07:54;;;;;;;2.90;1.88;;;;;;;;;;5042709;28;20488;-69
2023/11/20 05:10:22;;;;;;;1.80;1.70;;;;;;;;;;5039187;28;20052;-72
2023/11/20 05:12:51;;;;;;;1.80;1.70;;;;;;;;;;5044180;28;20052;-64
2023/11/20 05:15:19;;;;;;;1.83;1.77;;;;;;;;;;5047305;28;20519;-66
2023/11/20 05:17:48;;;;;;;2.10;2.00;;;;;;;;;;5042336;28;20144;-66
2023/11/20 05:20:16;;;;;;;2.28;1.83;;;;;;;;;;5050858;28;20140;-67
2023/11/20 05:22:46;;;;;;;1.80;1.70;;;;;;;;;;5041545;28;20045;-66
2023/11/20 05:25:16;;;;;;;1.90;1.80;;;;;;;;;;5050960;28;20107;-65
2023/11/20 05:27:44;;;;;;;1.77;1.67;;;;;;;;;;5050038;28;20464;-65
2023/11/20 05:30:13;;;;;;;2.00;1.90;;;;;;;;;;5049455;28;20060;-68
2023/11/20 05:32:42;;;;;;;2.00;1.90;;;;;;;;;;5046385;28;20044;-66
2023/11/20 05:35:11;;;;;;;2.15;1.85;;;;;;;;;;5049388;28;20088;-66
2023/11/20 05:37:40;;;;;;;1.92;1.83;;;;;;;;;;5049120;28;20052;-65
2023/11/20 05:40:10;;;;;;;1.70;1.65;;;;;;;;;;5051279;28;20045;-68
2023/11/20 05:42:40;;;;;;;1.80;1.70;;;;;;;;;;5049411;28;20580;-64
2023/11/20 05:45:09;;;;;;;2.22;1.80;;;;;;;;;;5041312;28;20049;-68
2023/11/20 05:47:38;;;;;;;2.08;1.98;;;;;;;;;;5047079;28;20068;-65
2023/11/20 05:50:07;;;;;;;2.55;2.22;;;;;;;;;;5046833;28;20548;-67
2023/11/20 05:52:35;;;;;;;1.80;1.70;;;;;;;;;;5042212;28;20052;-64
2023/11/20 05:55:04;;;;;;;2.10;2.00;;;;;;;;;;5047396;28;20098;-65
2023/11/20 05:57:33;;;;;;;1.80;1.70;;;;;;;;;;5046838;28;20051;-66
2023/11/20 06:00:03;;;;;;;1.77;1.75;;;;;;;;;;5042882;28;20540;-66
2023/11/20 06:02:32;;;;;;;2.00;1.88;;;;;;;;;;5045919;28;20388;-66
2023/11/20 06:05:00;;;;;;;2.22;2.03;;;;;;;;;;5043441;28;20045;-65
2023/11/20 06:07:29;;;;;;;1.95;1.80;;;;;;;;;;5043700;28;20643;-66
2023/11/20 06:09:57;;;;;;;2.10;2.00;;;;;;;;;;5047056;28;20103;-64
2023/11/20 06:12:26;;;;;;;2.97;2.17;;;;;;;;;;5050767;28;20052;-64
2023/11/20 06:14:54;;;;;;;1.77;1.70;;;;;;;;;;5040781;28;20102;-66
2023/11/20 06:17:24;;;;;;;1.67;1.63;;;;;;;;;;5044375;28;20080;-67
2023/11/20 06:19:53;;;;;;;2.45;2.00;;;;;;;;;;5041545;28;20486;-68
2023/11/20 06:22:21;;;;;;;1.83;1.73;;;;;;;;;;5046876;28;20056;-66
2023/11/20 06:24:50;;;;;;;1.90;1.80;;;;;;;;;;5045531;28;20044;-66
2023/11/20 06:27:18;;;;;;;2.13;2.03;;;;;;;;;;5038121;28;20517;-66
2023/11/20 06:29:47;;;;;;;2.10;2.00;;;;;;;;;;5042630;28;20510;-68
2023/11/20 06:32:15;;;;;;;2.40;2.20;;;;;;;;;;5044136;28;20171;-67
2023/11/20 06:34:46;;;;;;;2.17;1.80;;;;;;;;;;5037151;28;20053;-66
2023/11/20 06:37:16;;;;;;;2.20;1.83;;;;;;;;;;5038293;28;20044;-65
2023/11/20 06:39:44;;;;;;;1.80;1.70;;;;;;;;;;5048660;28;20049;-63
2023/11/20 06:42:13;;;;;;;2.20;2.00;;;;;;;;;;5036072;28;20064;-66
2023/11/20 06:44:42;;;;;;;3.67;2.30;;;;;;;;;;5046806;28;20137;-64
2023/11/20 06:47:10;;;;;;;2.30;1.85;;;;;;;;;;5042708;28;20476;-64
2023/11/20 06:49:41;;;;;;;1.80;1.70;;;;;;;;;;5049059;28;20049;-68
2023/11/20 06:52:10;;;;;;;1.98;1.85;;;;;;;;;;5048656;28;20045;-66
2023/11/20 06:54:39;;;;;;;1.90;1.80;;;;;;;;;;5040985;28;20053;-68
2023/11/20 06:57:07;;;;;;;2.50;1.95;;;;;;;;;;5044133;28;22686;-64
2023/11/20 06:59:35;;;;;;;2.20;2.00;;;;;;;;;;5041908;28;20076;-65
2023/11/20 07:02:04;;;;;;;1.95;1.85;;;;;;;;;;5046467;28;20095;-64
2023/11/20 07:04:37;;;;;;;2.25;2.05;;;;;;;;;;5041243;28;20507;-61
2023/11/20 07:07:06;;;;;;;4.07;2.08;;;;;;;;;;5032267;28;20096;-63
2023/11/20 07:09:36;;;;;;;1.80;1.70;;;;;;;;;;5047250;28;20049;-62
2023/11/20 07:12:04;;;;;;;1.80;1.70;;;;;;;;;;5042261;28;20044;-63
2023/11/20 07:14:33;;;;;;;2.00;1.90;;;;;;;;;;5048517;28;20049;-62
2023/11/20 07:17:01;;;;;;;1.85;1.75;;;;;;;;;;5048029;28;20048;-61
2023/11/20 07:19:30;;;;;;;2.00;1.80;;;;;;;;;;5040078;28;20443;-60
2023/11/20 07:21:58;;;;;;;2.65;1.77;;;;;;;;;;5042994;28;20127;-61
2023/11/20 07:24:28;;;;;;;1.73;1.60;;;;;;;;;;5049155;28;20088;-64
2023/11/20 07:26:57;;;;;;;1.90;1.80;;;;;;;;;;5045824;28;20057;-62
2023/11/20 07:29:26;;;;;;;1.60;1.60;;;;;;;;;;5040950;28;20407;-62
2023/11/20 07:31:54;;;;;;;2.80;2.10;;;;;;;;;;5048818;28;20069;-61
2023/11/20 07:34:23;;;;;;;2.15;2.05;;;;;;;;;;5047433;28;20045;-61
2023/11/20 07:36:55;;;;;;;2.10;2.00;;;;;;;;;;5042984;28;20046;-61
2023/11/20 07:39:25;;;;;;;1.85;1.75;;;;;;;;;;5044670;28;20073;-61
2023/11/20 07:41:53;;;;;;;2.42;2.00;;;;;;;;;;5044976;28;20480;-61
2023/11/20 07:44:23;;;;;;;1.90;1.80;;;;;;;;;;5044402;28;20045;-62
2023/11/20 07:46:51;;;;;;;2.35;1.80;;;;;;;;;;5042601;28;20434;-61
2023/11/20 07:49:20;;;;;;;2.22;2.08;;;;;;;;;;5041659;28;20096;-62
2023/11/20 07:51:51;;;;;;;1.98;1.88;;;;;;;;;;5042258;28;20493;-61
2023/11/20 07:54:19;;;;;;;2.40;1.98;;;;;;;;;;5046463;28;20513;-63
2023/11/20 07:56:48;;;;;;;2.53;2.00;;;;;;;;;;5047404;28;20056;-62
2023/11/20 07:59:16;;;;;;;2.80;1.75;;;;;;;;;;5045863;28;20045;-61
2023/11/20 08:01:46;;;;;;;1.98;1.70;;;;;;;;;;5030466;28;20053;-61
2023/11/20 08:04:16;;;;;;;1.98;1.88;;;;;;;;;;5043811;28;20470;-61
2023/11/20 08:06:46;;;;;;;2.42;1.77;;;;;;;;;;5039863;28;20141;-62
2023/11/20 08:09:15;;;;;;;2.08;1.90;;;;;;;;;;5047496;28;20661;-61
2023/11/20 08:11:44;;;;;;;2.00;1.90;;;;;;;;;;5048252;28;20167;-62
2023/11/20 08:14:15;;;;;;;2.15;2.05;;;;;;;;;;5046702;28;20052;-61
2023/11/20 08:16:46;;;;;;;2.58;2.33;;;;;;;;;;5043358;28;20075;-62
2023/11/20 08:19:16;;;;;;;2.05;1.90;;;;;;;;;;5043533;28;20045;-62
2023/11/20 08:21:45;;;;;;;2.05;1.95;;;;;;;;;;5041704;28;20045;-65
2023/11/20 08:24:13;;;;;;;1.88;1.77;;;;;;;;;;5045513;28;20053;-63
2023/11/20 08:26:42;;;;;;;1.90;1.80;;;;;;;;;;5046779;28;20045;-62
2023/11/20 08:29:11;;;;;;;1.95;1.85;;;;;;;;;;5044465;28;20053;-62
2023/11/20 08:31:42;;;;;;;2.08;1.95;;;;;;;;;;5039522;28;20445;-60
2023/11/20 08:34:11;;;;;;;1.90;1.80;;;;;;;;;;5047594;28;20057;-63
2023/11/20 08:36:40;;;;;;;2.30;2.13;;;;;;;;;;5042618;28;20059;-63
2023/11/20 08:39:12;;;;;;;2.45;1.80;;;;;;;;;;5042881;28;20056;-65
2023/11/20 08:41:41;;;;;;;2.47;2.20;;;;;;;;;;5045871;28;20060;-62
2023/11/20 08:44:11;;;;;;;1.98;1.88;;;;;;;;;;5037141;28;20460;-63
2023/11/20 08:46:39;;;;;;;2.15;1.95;;;;;;;;;;5038466;28;20414;-62
2023/11/20 08:49:08;;;;;;;1.67;1.67;;;;;;;;;;5043348;28;20049;-62
2023/11/20 08:51:38;;;;;;;3.60;2.50;;;;;;;;;;5045657;28;20049;-63
2023/11/20 08:54:16;;;;;;;1.90;1.80;;;;;;;;;;5044098;28;20057;-62
2023/11/20 08:56:46;;;;;;;2.08;1.90;;;;;;;;;;5044193;28;20053;-62
2023/11/20 08:59:14;;;;;;;2.13;1.90;;;;;;;;;;5038999;28;20045;-63
2023/11/20 09:01:45;;;;;;;2.45;2.13;;;;;;;;;;5043594;28;20052;-62
2023/11/20 09:04:13;;;;;;;4.15;2.03;;;;;;;;;;5036196;28;20053;-62
2023/11/20 09:06:43;;;;;;;2.00;1.90;;;;;;;;;;5041904;28;20060;-63
2023/11/20 09:09:13;;;;;;;3.92;2.13;;;;;;;;;;5046858;28;20371;-60
2023/11/20 09:11:42;;;;;;;3.15;1.85;;;;;;;;;;5047004;28;20041;-62
2023/11/20 09:14:12;;;;;;;1.98;1.88;;;;;;;;;;5045065;28;20056;-62
2023/11/20 09:16:40;;;;;;;2.03;1.80;;;;;;;;;;5033765;28;20451;-61
2023/11/20 09:19:09;;;;;;;2.30;2.13;;;;;;;;;;5044048;28;20057;-63
2023/11/20 09:21:37;;;;;;;1.98;1.80;;;;;;;;;;5045165;28;20048;-62
2023/11/20 09:24:07;;;;;;;1.83;1.73;;;;;;;;;;5036272;28;20109;-63
2023/11/20 09:26:36;;;;;;;2.00;1.70;;;;;;;;;;5036212;28;20045;-61
2023/11/20 09:29:06;;;;;;;2.40;1.70;;;;;;;;;;5043484;28;20082;-63
2023/11/20 09:31:35;;;;;;;3.85;1.77;;;;;;;;;;5041385;28;20049;-62
2023/11/20 09:34:04;;;;;;;2.15;1.95;;;;;;;;;;5046413;28;20064;-62
2023/11/20 09:36:32;;;;;;;1.88;1.77;;;;;;;;;;5045302;28;20356;-62
2023/11/20 09:39:01;;;;;;;1.67;1.63;;;;;;;;;;5043284;28;20110;-61
2023/11/20 09:41:31;;;;;;;1.70;1.60;;;;;;;;;;5044032;28;20076;-63
2023/11/20 09:43:59;;;;;;;1.75;1.65;;;;;;;;;;5045727;28;20053;-61
2023/11/20 09:46:29;;;;;;;2.53;1.70;;;;;;;;;;5037965;28;20103;-64
2023/11/20 09:48:58;;;;;;;2.17;1.77;;;;;;;;;;5040654;28;20481;-62
2023/11/20 09:51:28;;;;;;;4.35;1.70;;;;;;;;;;5042671;28;20048;-62
2023/11/20 09:53:58;;;;;;;1.80;1.70;;;;;;;;;;5044465;28;20052;-62
2023/11/20 09:56:26;;;;;;;1.83;1.73;;;;;;;;;;5045775;28;20045;-64
2023/11/20 09:58:56;;;;;;;2.08;1.92;;;;;;;;;;5040608;28;20403;-61
2023/11/20 10:01:26;;;;;;;1.67;1.58;;;;;;;;;;5041406;28;20045;-62
2023/11/20 10:03:55;;;;;;;4.45;2.00;;;;;;;;;;5039622;28;20049;-62
2023/11/20 10:06:25;;;;;;;4.68;1.83;;;;;;;;;;5049013;28;20410;-62
2023/11/20 10:08:54;;;;;;;1.77;1.67;;;;;;;;;;5046677;28;20584;-62
2023/11/20 10:11:23;;;;;;;1.85;1.75;;;;;;;;;;5051125;28;20136;-61
2023/11/20 10:13:52;;;;;;;1.70;1.60;;;;;;;;;;5047680;28;20785;-64
2023/11/20 10:16:23;;;;;;;2.38;2.03;;;;;;;;;;5031922;28;20164;-60
2023/11/20 10:18:52;;;;;;;1.73;1.60;;;;;;;;;;5043461;28;20053;-61
2023/11/20 10:21:21;;;;;;;2.03;1.70;;;;;;;;;;5040230;28;20091;-62
2023/11/20 10:23:54;;;;;;;2.17;1.70;;;;;;;;;;5036083;28;20132;-61
2023/11/20 10:26:23;;;;;;;2.15;2.00;;;;;;;;;;5048523;28;20458;-61
2023/11/20 10:28:52;;;;;;;4.80;2.80;;;;;;;;;;5036393;28;20045;-62
2023/11/20 10:31:20;;;;;;;2.20;2.10;;;;;;;;;;5046649;28;20056;-62
2023/11/20 10:34:02;;;;;;;2.20;1.98;;;;;;;;;;5047959;28;20077;-61
2023/11/20 10:36:30;;;;;;;2.25;2.03;;;;;;;;;;5047650;28;20270;-62
2023/11/20 10:38:59;;;;;;;1.80;1.70;;;;;;;;;;5044357;28;20080;-63
2023/11/20 10:41:29;;;;;;;2.17;1.70;;;;;;;;;;5049707;28;20053;-61
2023/11/20 10:43:59;;;;;;;1.85;1.75;;;;;;;;;;5044654;28;20052;-63
2023/11/20 10:46:27;;;;;;;1.90;1.80;;;;;;;;;;5048865;28;20098;-65
2023/11/20 10:49:01;;;;;;;1.80;1.70;;;;;;;;;;5035314;28;20107;-61
2023/11/20 10:51:30;;;;;;;2.00;1.90;;;;;;;;;;5040194;28;20311;-62
2023/11/20 10:54:00;;;;;;;2.13;1.92;;;;;;;;;;5037755;28;20052;-63
2023/11/20 10:56:31;;;;;;;2.13;1.98;;;;;;;;;;5044379;28;20057;-62
2023/11/20 10:59:02;;;;;;;1.90;1.80;;;;;;;;;;5040419;28;20514;-62
2023/11/20 11:01:32;;;;;;;2.17;1.90;;;;;;;;;;5045736;28;20506;-61
2023/11/20 11:04:02;;;;;;;2.63;1.90;;;;;;;;;;5039308;28;20402;-61
2023/11/20 11:06:33;;;;;;;2.47;1.75;;;;;;;;;;5041188;28;20051;-61
2023/11/20 11:09:03;;;;;;;2.40;2.00;;;;;;;;;;5044581;28;20049;-66
2023/11/20 11:11:33;;;;;;;1.90;1.80;;;;;;;;;;5048416;28;20049;-62
2023/11/20 11:14:01;;;;;;;2.13;2.03;;;;;;;;;;5039326;28;20099;-61
2023/11/20 11:16:31;;;;;;;1.77;1.67;;;;;;;;;;5042613;28;20518;-64
2023/11/20 11:19:07;;;;;;;1.83;1.73;;;;;;;;;;5033245;28;20088;-61
2023/11/20 11:21:40;;;;;;;1.80;1.70;;;;;;;;;;5036135;28;20053;-61
2023/11/20 11:24:12;;;;;;;2.30;2.10;;;;;;;;;;5047250;28;20049;-62
2023/11/20 11:26:52;;;;;;;2.10;2.00;;;;;;;;;;5048761;28;20049;-60
2023/11/20 11:29:24;;;;;;;2.10;2.00;;;;;;;;;;5042787;28;20402;-61
2023/11/20 11:32:01;;;;;;;3.17;2.40;;;;;;;;;;5035791;28;20498;-61
2023/11/20 11:34:37;;;;;;;2.45;2.20;;;;;;;;;;5032928;28;20495;-61
2023/11/20 11:37:08;;;;;;;2.53;2.33;;;;;;;;;;5048368;28;20441;-61
2023/11/20 11:39:39;;;;;;;2.03;1.88;;;;;;;;;;5048125;28;20491;-62
2023/11/20 11:42:11;;;;;;;2.03;1.92;;;;;;;;;;5049192;28;20084;-60
2023/11/20 11:44:44;;;;;;;2.80;2.08;;;;;;;;;;5043239;28;20128;-60
2023/11/20 11:47:16;;;;;;;2.08;1.98;;;;;;;;;;5039434;28;20059;-63
2023/11/20 11:49:49;;;;;;;3.47;2.00;;;;;;;;;;5048594;28;20448;-61
2023/11/20 11:52:21;;;;;;;2.92;1.75;;;;;;;;;;5033173;28;20500;-61
2023/11/20 11:55:04;;;;;;;1.80;1.70;;;;;;;;;;5048868;28;20139;-62
2023/11/20 11:57:33;;;;;;;1.90;1.80;;;;;;;;;;5033172;28;20084;-62
2023/11/20 12:00:11;;;;;;;3.35;1.92;;;;;;;;;;5044015;28;20088;-63
2023/11/20 12:02:54;;;;;;;2.70;2.50;;;;;;;;;;5048586;28;20477;-61
2023/11/20 12:05:24;;;;;;;2.70;2.50;;;;;;;;;;5033175;28;20383;-63
2023/11/20 12:07:56;;;;;;;2.40;2.20;;;;;;;;;;5040320;28;20047;-62
2023/11/20 12:10:49;;;;;;;2.38;2.20;;;;;;;;;;5040083;28;20415;-60
2023/11/20 12:13:18;;;;;;;2.70;2.53;;;;;;;;;;5030560;28;20049;-62
2023/11/20 12:15:47;;;;;;;2.45;2.22;;;;;;;;;;5048706;28;20136;-62
2023/11/20 12:18:17;;;;;;;2.17;2.08;;;;;;;;;;5045313;28;20056;-62
2023/11/20 12:21:04;;;;;;;2.22;2.03;;;;;;;;;;5039877;28;20076;-61
2023/11/20 12:23:33;;;;;;;1.90;1.80;;;;;;;;;;5032731;28;20483;-62
2023/11/20 12:26:03;;;;;;;1.70;1.60;;;;;;;;;;5044388;28;20491;-62
2023/11/20 12:28:33;;;;;;;1.90;1.80;;;;;;;;;;5038959;28;20053;-63
2023/11/20 12:31:04;;;;;;;2.10;1.90;;;;;;;;;;5042813;28;20052;-62
2023/11/20 12:33:33;;;;;;;4.97;1.80;;;;;;;;;;5035565;28;20049;-62
2023/11/20 12:36:04;;;;;;;1.75;1.65;;;;;;;;;;5042816;28;20045;-63
2023/11/20 12:38:33;;;;;;;2.08;1.90;;;;;;;;;;5038672;28;20623;-64
2023/11/20 12:41:03;;;;;;;1.90;1.80;;;;;;;;;;5042222;28;20037;-62
2023/11/20 12:43:33;;;;;;;1.70;1.60;;;;;;;;;;5044272;28;20057;-62
2023/11/20 12:46:04;;;;;;;1.80;1.70;;;;;;;;;;5046684;28;20041;-63
2023/11/20 12:48:35;;;;;;;1.80;1.70;;;;;;;;;;5048120;28;20044;-63
2023/11/20 12:51:06;;;;;;;1.95;1.85;;;;;;;;;;5044920;28;20041;-61
2023/11/20 12:53:36;;;;;;;2.17;2.00;;;;;;;;;;5046908;28;20060;-62
2023/11/20 12:56:07;;;;;;;2.67;1.70;;;;;;;;;;5040904;28;20069;-62
2023/11/20 12:58:36;;;;;;;2.30;2.00;;;;;;;;;;5038396;28;20576;-61
2023/11/20 13:01:04;;;;;;;1.80;1.70;;;;;;;;;;5040553;28;20051;-64
2023/11/20 13:03:35;;;;;;;1.95;1.85;;;;;;;;;;5041715;28;20142;-62
2023/11/20 13:06:09;;;;;;;2.33;2.13;;;;;;;;;;5044735;28;20052;-61
2023/11/20 13:08:39;;;;;;;2.22;2.03;;;;;;;;;;5041210;28;20070;-64
2023/11/20 13:11:12;;;;;;;2.92;1.92;;;;;;;;;;5043349;28;20417;-61
2023/11/20 13:13:42;;;;;;;2.13;1.70;;;;;;;;;;5038354;28;20048;-62
2023/11/20 13:16:16;;;;;;;2.70;1.65;;;;;;;;;;5037471;28;20061;-62
2023/11/20 13:18:49;;;;;;;1.80;1.70;;;;;;;;;;5020783;28;20049;-62
2023/11/20 13:21:23;;;;;;;2.20;2.10;;;;;;;;;;5037419;28;20053;-61
2023/11/20 13:24:02;;;;;;;1.83;1.70;;;;;;;;;;5040066;28;20049;-64
2023/11/20 13:26:31;;;;;;;2.70;1.75;;;;;;;;;;5033728;28;20476;-63
2023/11/20 13:28:59;;;;;;;2.30;2.17;;;;;;;;;;5041428;28;20053;-64
2023/11/20 13:31:34;;;;;;;2.10;1.90;;;;;;;;;;5038772;28;20458;-63
2023/11/20 13:34:04;;;;;;;2.08;1.88;;;;;;;;;;5045505;28;20076;-64
2023/11/20 13:36:38;;;;;;;1.60;1.50;;;;;;;;;;5043780;28;20049;-63
2023/11/20 13:39:10;;;;;;;2.00;1.90;;;;;;;;;;5044751;28;20557;-63
2023/11/20 13:41:39;;;;;;;2.25;1.60;;;;;;;;;;5046643;28;20560;-63
2023/11/20 13:44:08;;;;;;;1.95;1.85;;;;;;;;;;5044150;28;20423;-61
2023/11/20 13:46:37;;;;;;;1.90;1.80;;;;;;;;;;5042734;28;20068;-65
2023/11/20 13:49:07;;;;;;;1.98;1.85;;;;;;;;;;5043361;28;20132;-65
2023/11/20 13:51:38;;;;;;;3.80;1.77;;;;;;;;;;5046479;28;20521;-64
2023/11/20 13:54:09;;;;;;;2.10;1.90;;;;;;;;;;5046030;28;20055;-63
2023/11/20 13:56:38;;;;;;;2.00;1.90;;;;;;;;;;5047546;28;20052;-62
2023/11/20 13:59:08;;;;;;;2.15;1.90;;;;;;;;;;5035566;28;20061;-62
2023/11/20 14:01:37;;;;;;;1.95;1.80;;;;;;;;;;5042080;28;20057;-64
2023/11/20 14:04:06;;;;;;;1.83;1.73;;;;;;;;;;5041948;28;20056;-61
2023/11/20 14:06:39;;;;;;;2.92;1.70;;;;;;;;;;5040524;28;20037;-65
2023/11/20 14:09:08;;;;;;;1.80;1.70;;;;;;;;;;5035477;28;20052;-62
2023/11/20 14:11:37;;;;;;;2.72;2.03;;;;;;;;;;5042684;28;20445;-62
2023/11/20 14:14:05;;;;;;;2.25;2.05;;;;;;;;;;5046791;28;20517;-63
2023/11/20 14:16:33;;;;;;;2.10;2.00;;;;;;;;;;5040174;28;20053;-62
2023/11/20 14:19:02;;;;;;;3.20;2.13;;;;;;;;;;5047762;28;20559;-61
2023/11/20 14:21:32;;;;;;;2.67;1.88;;;;;;;;;;5039974;28;20498;-62
2023/11/20 14:24:02;;;;;;;3.83;2.28;;;;;;;;;;5048309;28;20080;-62
2023/11/20 14:26:31;;;;;;;1.95;1.85;;;;;;;;;;5040462;28;20057;-63
2023/11/20 14:29:02;;;;;;;2.58;2.30;;;;;;;;;;5041368;28;20059;-63
2023/11/20 14:31:32;;;;;;;3.35;2.00;;;;;;;;;;5047123;28;20041;-63
2023/11/20 14:34:01;;;;;;;2.30;1.75;;;;;;;;;;5047403;28;21405;-62
2023/11/20 14:36:30;;;;;;;2.03;1.88;;;;;;;;;;5044287;28;20453;-62
2023/11/20 14:38:58;;;;;;;2.35;2.15;;;;;;;;;;5043987;28;20057;-61
2023/11/20 14:41:28;;;;;;;2.00;1.80;;;;;;;;;;5047286;28;20056;-62
2023/11/20 14:43:57;;;;;;;2.88;1.98;;;;;;;;;;5040956;28;20049;-63
2023/11/20 14:46:25;;;;;;;1.70;1.60;;;;;;;;;;5040941;28;20044;-62
2023/11/20 14:48:54;;;;;;;2.08;1.95;;;;;;;;;;5048174;28;20156;-62
2023/11/20 14:51:22;;;;;;;1.90;1.80;;;;;;;;;;5046054;28;20414;-65
2023/11/20 14:53:52;;;;;;;2.10;1.85;;;;;;;;;;5036094;28;20048;-64
2023/11/20 14:56:20;;;;;;;1.75;1.65;;;;;;;;;;5045002;28;20564;-62
2023/11/20 14:58:51;;;;;;;1.95;1.85;;;;;;;;;;5034110;28;20114;-61